Time;durP1;ratioP1;P1;durP2;ratioP2;P2;SDS_P1;SDS_P2;PMS_P1;PMS_P2;Temp;Humidity;BMP_temperature;BMP_pressure;BME280_temperature;BME280_humidity;BME280_pressure;Samples;Min_cycle;Max_cycle;Signal;HPM_P1;HPM_P2
2023/01/30 00:01:45;;;;;;;3.35;1.52;;;;;;;6.24;78.71;101050.52;1871608;77;21118;-47
2023/01/30 00:04:14;;;;;;;3.02;1.47;;;;;;;6.25;78.71;101043.07;1871683;77;21591;-50
2023/01/30 00:06:44;;;;;;;2.37;1.32;;;;;;;6.26;78.76;101050.04;1871660;77;21601;-46
2023/01/30 00:09:16;;;;;;;3.35;1.27;;;;;;;6.27;78.76;101053.05;1871679;77;21016;-47
2023/01/30 00:11:45;;;;;;;4.55;2.15;;;;;;;6.27;78.78;101056.98;1871697;77;21571;-45
2023/01/30 00:14:14;;;;;;;3.58;1.60;;;;;;;6.28;78.79;101065.27;1869434;75;21085;-48
2023/01/30 00:16:43;;;;;;;7.87;2.42;;;;;;;6.28;78.78;101066.56;1910349;74;21023;-52
2023/01/30 00:19:11;;;;;;;4.20;2.10;;;;;;;6.27;78.88;101071.36;1882041;75;21113;-49
2023/01/30 00:21:40;;;;;;;6.55;2.33;;;;;;;6.26;78.82;101078.36;1888709;74;21540;-46
2023/01/30 00:24:09;;;;;;;2.47;1.25;;;;;;;6.26;78.86;101077.05;1868102;75;21079;-44
2023/01/30 00:26:37;;;;;;;3.60;1.55;;;;;;;6.24;78.85;101075.36;1827219;76;21063;-45
2023/01/30 00:29:06;;;;;;;4.08;1.62;;;;;;;6.22;78.84;101074.52;1815724;79;21375;-47
2023/01/30 00:31:35;;;;;;;2.87;1.70;;;;;;;6.19;78.93;101078.88;1815678;79;21051;-48
2023/01/30 00:34:03;;;;;;;2.95;1.35;;;;;;;6.16;79.04;101080.26;1825205;78;21047;-52
2023/01/30 00:36:32;;;;;;;1.67;1.10;;;;;;;6.15;79.07;101086.81;1823970;78;21055;-50
2023/01/30 00:39:00;;;;;;;2.25;1.02;;;;;;;6.10;79.29;101076.41;1833757;78;21627;-48
2023/01/30 00:47:04;;;;;;;2.80;1.47;;;;;;;6.10;79.18;101086.86;1823422;78;21058;-47
2023/01/30 00:47:04;;;;;;;1.40;1.00;;;;;;;6.04;79.14;101085.66;1822885;78;21067;-48
2023/01/30 00:49:33;;;;;;;1.60;0.82;;;;;;;5.98;79.25;101084.45;1837740;78;21011;-50
2023/01/30 00:52:02;;;;;;;0.85;0.70;;;;;;;5.93;79.21;101085.78;1837214;78;21035;-50
2023/01/30 00:54:31;;;;;;;1.98;1.30;;;;;;;5.91;79.18;101093.23;1824653;78;21153;-51
2023/01/30 00:56:59;;;;;;;3.00;1.32;;;;;;;5.88;79.19;101091.50;1815793;79;21062;-49
2023/01/30 00:59:28;;;;;;;2.08;1.40;;;;;;;5.85;79.26;101086.80;1816075;78;21124;-50
2023/01/30 01:01:57;;;;;;;3.67;0.88;;;;;;;5.84;79.20;101094.20;1822825;78;21043;-49
2023/01/30 01:04:25;;;;;;;1.70;1.17;;;;;;;5.87;79.06;101099.39;1818073;78;21074;-50
2023/01/30 01:06:54;;;;;;;1.35;1.15;;;;;;;5.86;79.01;101095.04;1830128;78;21094;-51
2023/01/30 01:09:23;;;;;;;2.42;0.80;;;;;;;5.82;79.07;101095.97;1829458;78;21648;-44
2023/01/30 01:11:53;;;;;;;1.42;0.90;;;;;;;5.79;79.02;101096.44;1811958;78;21110;-45
2023/01/30 01:14:22;;;;;;;3.30;1.15;;;;;;;5.75;79.04;101096.48;1808501;78;21216;-42
2023/01/30 01:16:50;;;;;;;1.50;0.90;;;;;;;5.76;78.98;101102.15;1819739;78;21625;-44
2023/01/30 01:19:19;;;;;;;1.35;0.98;;;;;;;5.75;78.95;101105.18;1818405;78;21150;-46
2023/01/30 01:21:47;;;;;;;2.55;1.02;;;;;;;5.76;78.89;101096.47;1812927;78;21031;-47
2023/01/30 01:24:16;;;;;;;1.80;1.15;;;;;;;5.74;78.85;101102.16;1812994;77;21100;-47
2023/01/30 01:26:46;;;;;;;1.77;1.10;;;;;;;5.73;78.90;101106.95;1847098;77;21172;-48
2023/01/30 01:29:16;;;;;;;1.10;1.00;;;;;;;5.73;78.84;101100.42;1862050;77;21059;-45
2023/01/30 01:31:46;;;;;;;1.55;1.15;;;;;;;5.72;78.88;101098.71;1861937;77;21593;-46
2023/01/30 01:34:16;;;;;;;2.02;1.10;;;;;;;5.72;78.86;101098.71;1862656;77;21679;-46
2023/01/30 01:36:46;;;;;;;1.92;1.60;;;;;;;5.71;78.85;101098.27;1862603;77;21076;-46
2023/01/30 01:39:16;;;;;;;3.20;1.10;;;;;;;5.68;78.93;101104.87;1862392;77;21150;-45
2023/01/30 01:41:45;;;;;;;1.85;1.22;;;;;;;5.68;78.97;101106.17;1862390;77;21159;-45
2023/01/30 01:44:15;;;;;;;1.70;1.02;;;;;;;5.68;78.97;101107.48;1863938;77;21019;-46
2023/01/30 01:46:56;;;;;;;0.98;0.88;;;;;;;5.68;79.00;101108.79;1861932;77;21142;-46
2023/01/30 01:49:27;;;;;;;3.33;1.30;;;;;;;5.69;79.06;101110.50;1863978;77;21157;-45
2023/01/30 01:51:59;;;;;;;2.05;1.02;;;;;;;5.72;79.02;101110.92;1839404;77;21105;-47
2023/01/30 01:54:45;;;;;;;1.87;1.20;;;;;;;5.71;79.05;101111.34;1840467;75;21161;-45
2023/01/30 01:57:16;;;;;;;3.77;1.32;;;;;;;5.73;79.13;101113.48;1865474;76;21126;-43
2023/01/30 01:59:48;;;;;;;2.92;1.17;;;;;;;5.78;79.13;101117.36;1863674;77;21132;-43
2023/01/30 02:02:18;;;;;;;2.08;1.27;;;;;;;5.83;79.01;101115.98;1855094;75;21016;-45
2023/01/30 02:05:02;;;;;;;2.52;1.42;;;;;;;5.86;78.91;101122.48;1847779;78;21101;-45
2023/01/30 02:07:36;;;;;;;2.22;1.22;;;;;;;5.87;78.80;101120.30;1847887;78;21031;-45
2023/01/30 02:10:07;;;;;;;1.98;1.27;;;;;;;5.88;78.69;101117.64;1796068;77;21087;-45
2023/01/30 02:12:39;;;;;;;3.40;1.20;;;;;;;5.87;78.70;101123.77;1847748;78;21134;-45
2023/01/30 02:15:08;;;;;;;1.55;1.10;;;;;;;5.88;78.76;101125.94;1847782;78;21052;-43
2023/01/30 02:17:37;;;;;;;5.42;1.45;;;;;;;5.89;78.74;101126.38;1861671;76;21137;-47
2023/01/30 02:20:29;;;;;;;2.77;1.20;;;;;;;5.90;78.71;101127.66;1864968;77;21176;-42
2023/01/30 02:23:15;;;;;;;3.02;1.22;;;;;;;5.90;78.74;101128.97;1864934;77;21533;-45
2023/01/30 02:25:56;;;;;;;2.30;1.30;;;;;;;5.89;78.66;101128.53;1819568;76;21142;-45
2023/01/30 02:28:39;;;;;;;2.22;1.10;;;;;;;5.87;78.71;101132.06;1871589;77;21634;-43
2023/01/30 02:31:21;;;;;;;3.25;1.50;;;;;;;5.86;78.60;101129.02;1871630;76;21580;-43
2023/01/30 02:34:15;;;;;;;3.65;1.12;;;;;;;5.83;78.51;101131.66;1864506;76;21087;-44
2023/01/30 02:36:52;;;;;;;2.60;1.30;;;;;;;5.80;78.45;101128.20;1862739;76;21038;-45
2023/01/30 02:39:30;;;;;;;4.22;1.60;;;;;;;5.78;78.34;101131.28;1872431;76;21048;-45
2023/01/30 02:42:10;;;;;;;1.90;1.45;;;;;;;5.74;78.37;101129.59;1870753;75;21072;-46
2023/01/30 02:44:54;;;;;;;1.82;1.20;;;;;;;5.72;78.38;101125.29;1871613;75;21130;-44
2023/01/30 02:47:31;;;;;;;2.80;1.42;;;;;;;5.70;78.33;101125.72;1870722;74;21048;-45
2023/01/30 02:50:04;;;;;;;2.50;1.30;;;;;;;5.63;78.47;101124.95;1871751;77;21605;-44
2023/01/30 02:52:34;;;;;;;8.48;2.95;;;;;;;5.54;78.87;101128.98;1869816;75;21154;-46
2023/01/30 02:55:12;;;;;;;3.60;1.80;;;;;;;5.50;78.88;101115.55;1871813;76;21442;-45
2023/01/30 02:57:40;;;;;;;2.12;1.25;;;;;;;5.45;79.12;101119.95;1865211;75;21466;-45
2023/01/30 03:00:11;;;;;;;1.07;0.90;;;;;;;5.41;79.15;101121.28;1871834;77;21522;-46
2023/01/30 03:02:45;;;;;;;2.33;1.32;;;;;;;5.38;79.15;101117.39;1871700;77;21019;-43
2023/01/30 03:05:44;;;;;;;1.17;0.85;;;;;;;5.36;79.15;101119.61;1867179;76;21115;-46
2023/01/30 03:08:21;;;;;;;2.22;1.37;;;;;;;5.34;79.21;101120.92;1845311;76;21523;-42
2023/01/30 03:11:02;;;;;;;1.80;1.07;;;;;;;5.34;79.25;101117.46;1868037;76;21502;-47
2023/01/30 03:13:42;;;;;;;3.85;1.95;;;;;;;5.35;79.24;101120.06;1865109;76;21269;-45
2023/01/30 03:16:20;;;;;;;4.28;1.70;;;;;;;5.35;79.20;101115.28;1863131;76;21051;-44
2023/01/30 03:18:50;;;;;;;2.65;1.62;;;;;;;5.34;79.21;101118.77;1872592;76;21149;-42
2023/01/30 03:21:19;;;;;;;3.85;1.90;;;;;;;5.33;79.15;101116.61;1874934;76;22120;-42
2023/01/30 03:23:48;;;;;;;4.28;1.90;;;;;;;5.31;79.16;101113.15;1874650;76;21434;-44
2023/01/30 03:26:22;;;;;;;5.15;1.77;;;;;;;5.29;79.11;101108.36;1857256;76;21073;-42
2023/01/30 03:28:52;;;;;;;4.87;1.98;;;;;;;5.30;79.03;101113.16;1836409;77;21787;-44
2023/01/30 03:31:21;;;;;;;3.62;1.80;;;;;;;5.30;78.91;101115.77;1852704;77;21070;-44
2023/01/30 03:33:50;;;;;;;3.42;1.80;;;;;;;5.29;78.80;101121.41;1847405;77;21092;-44
2023/01/30 03:36:19;;;;;;;5.30;2.22;;;;;;;5.27;78.76;101124.48;1851216;77;21562;-43
2023/01/30 03:38:48;;;;;;;4.08;2.00;;;;;;;5.26;78.72;101112.33;1844204;77;21135;-44
2023/01/30 03:41:17;;;;;;;5.33;2.30;;;;;;;5.25;78.72;101111.89;1837386;77;21736;-43
2023/01/30 03:43:46;;;;;;;3.95;1.65;;;;;;;5.23;78.71;101121.49;1840631;77;21143;-41
2023/01/30 03:46:16;;;;;;;5.35;2.35;;;;;;;5.20;78.73;101117.19;1825208;77;21190;-42
2023/01/30 03:48:44;;;;;;;5.42;2.98;;;;;;;5.18;78.74;101121.98;1842457;76;21029;-44
2023/01/30 03:51:13;;;;;;;5.28;2.55;;;;;;;5.16;78.75;101119.38;1847813;77;21677;-45
2023/01/30 03:53:42;;;;;;;3.58;2.20;;;;;;;5.15;78.77;101120.27;1839564;77;21116;-47
2023/01/30 03:56:10;;;;;;;7.42;2.17;;;;;;;5.12;78.79;101120.75;1808375;77;21191;-47
2023/01/30 03:58:39;;;;;;;5.33;2.20;;;;;;;5.10;78.82;101118.59;1845370;77;21642;-48
2023/01/30 04:01:19;;;;;;;4.37;2.00;;;;;;;5.03;78.94;101116.06;1844096;77;21097;-45
2023/01/30 04:03:48;;;;;;;3.12;2.00;;;;;;;4.97;79.04;101117.41;1836375;77;21128;-48
2023/01/30 04:06:17;;;;;;;5.12;1.72;;;;;;;4.94;79.02;101121.78;1836714;77;21076;-47
2023/01/30 04:08:46;;;;;;;15.65;6.70;;;;;;;4.88;79.04;101128.37;1847491;77;21155;-43
2023/01/30 04:11:16;;;;;;;6.70;3.65;;;;;;;4.79;79.18;101131.48;1841524;77;21205;-45
2023/01/30 04:13:45;;;;;;;5.58;2.55;;;;;;;4.74;79.25;101128.48;1838384;76;21688;-46
2023/01/30 04:16:19;;;;;;;6.08;2.33;;;;;;;4.72;79.29;101131.55;1839792;77;21246;-43
2023/01/30 04:18:50;;;;;;;8.38;3.27;;;;;;;4.71;79.24;101130.70;1831408;77;21056;-43
2023/01/30 04:21:21;;;;;;;7.22;3.10;;;;;;;4.72;79.26;101130.25;1841783;77;21150;-44
2023/01/30 04:23:49;;;;;;;3.02;2.00;;;;;;;4.73;79.40;101130.69;1853669;77;21635;-43
2023/01/30 04:26:18;;;;;;;3.58;1.42;;;;;;;4.77;79.43;101131.94;1848434;77;21320;-44
2023/01/30 04:28:47;;;;;;;5.72;1.80;;;;;;;4.83;79.34;101128.41;1862372;77;21688;-45
2023/01/30 04:31:16;;;;;;;3.70;1.90;;;;;;;4.89;79.19;101127.48;1843937;77;21686;-43
2023/01/30 04:33:47;;;;;;;7.65;1.65;;;;;;;4.90;79.00;101131.39;1848555;77;21117;-44
2023/01/30 04:36:16;;;;;;;3.05;1.90;;;;;;;4.91;78.90;101133.13;1847194;77;21582;-43
2023/01/30 04:38:45;;;;;;;3.75;2.22;;;;;;;4.90;78.92;101137.05;1859620;77;21180;-43
2023/01/30 04:41:14;;;;;;;2.72;1.50;;;;;;;4.89;78.99;101130.98;1864450;77;21157;-43
2023/01/30 04:43:43;;;;;;;1.92;1.07;;;;;;;4.89;79.04;101136.20;1866091;77;21479;-43
2023/01/30 04:46:22;;;;;;;3.17;1.62;;;;;;;4.89;78.93;101141.41;1863082;77;21133;-43
2023/01/30 04:48:51;;;;;;;2.20;1.37;;;;;;;4.85;78.85;101135.81;1862076;77;21061;-44
2023/01/30 04:51:20;;;;;;;4.60;1.65;;;;;;;4.84;78.84;101137.98;1857033;77;21126;-43
2023/01/30 04:53:48;;;;;;;2.47;1.55;;;;;;;4.86;78.81;101138.83;1860673;77;21097;-43
2023/01/30 04:56:17;;;;;;;2.72;1.50;;;;;;;4.89;78.80;101138.81;1847848;77;21058;-44
2023/01/30 04:58:47;;;;;;;2.70;1.10;;;;;;;4.92;78.80;101146.58;1827831;76;21485;-44
2023/01/30 05:01:24;;;;;;;3.42;1.70;;;;;;;4.96;78.77;101149.62;1866301;76;21144;-45
2023/01/30 05:03:54;;;;;;;3.12;1.87;;;;;;;4.97;78.82;101150.02;1861909;77;21170;-45
2023/01/30 05:06:23;;;;;;;3.50;1.60;;;;;;;4.99;78.90;101157.39;1861725;77;21069;-44
2023/01/30 05:08:53;;;;;;;4.97;1.75;;;;;;;5.02;78.88;101158.69;1856920;77;21020;-43
2023/01/30 05:11:24;;;;;;;3.17;1.80;;;;;;;5.03;79.04;101157.82;1865659;77;21498;-43
2023/01/30 05:13:54;;;;;;;8.30;3.00;;;;;;;5.10;79.05;101157.30;1866260;77;21047;-48
2023/01/30 05:16:23;;;;;;;3.37;2.10;;;;;;;5.16;79.04;101162.90;1866046;77;21141;-45
2023/01/30 05:18:52;;;;;;;5.53;1.85;;;;;;;5.18;78.92;101166.36;1864880;76;21500;-46
2023/01/30 05:21:24;;;;;;;4.08;2.62;;;;;;;5.19;78.72;101168.10;1864381;77;21036;-43
2023/01/30 05:23:54;;;;;;;3.00;2.10;;;;;;;5.18;78.65;101164.63;1865287;77;21129;-43
2023/01/30 05:26:23;;;;;;;9.85;1.82;;;;;;;5.12;78.81;101163.81;1866065;77;21079;-47
2023/01/30 05:28:57;;;;;;;4.72;2.25;;;;;;;5.10;78.86;101166.44;1859768;76;21081;-44
2023/01/30 05:31:25;;;;;;;6.37;2.65;;;;;;;5.11;78.85;101162.07;1827668;78;21029;-46
2023/01/30 05:33:54;;;;;;;6.28;3.52;;;;;;;5.17;78.68;101164.64;1833755;77;21115;-45
2023/01/30 05:36:23;;;;;;;8.95;3.05;;;;;;;5.22;78.74;101168.94;1861402;77;21053;-44
2023/01/30 05:38:52;;;;;;;10.48;2.83;;;;;;;5.31;78.86;101166.68;1861629;77;21492;-47
2023/01/30 05:41:20;;;;;;;4.35;2.47;;;;;;;5.44;79.05;101172.64;1850281;77;21045;-41
2023/01/30 05:43:50;;;;;;;4.03;1.75;;;;;;;5.94;79.23;101160.70;1861407;76;21064;-48
2023/01/30 05:46:19;;;;;;;5.10;1.72;;;;;;;6.67;78.72;101170.14;1861706;76;21049;-47
2023/01/30 05:48:48;;;;;;;2.90;1.67;;;;;;;7.38;77.96;101166.28;1860886;77;21192;-47
2023/01/30 05:51:19;;;;;;;2.85;1.25;;;;;;;8.10;77.46;101167.45;1840565;77;21119;-48
2023/01/30 05:53:49;;;;;;;3.35;1.35;;;;;;;8.86;76.90;101164.81;1830157;77;21633;-47
2023/01/30 05:56:18;;;;;;;5.83;1.52;;;;;;;9.62;76.41;101167.61;1850333;77;21578;-46
2023/01/30 05:58:57;;;;;;;2.55;1.40;;;;;;;10.18;75.90;101171.25;1836184;77;21065;-46
2023/01/30 06:01:27;;;;;;;3.05;1.20;;;;;;;10.60;75.08;101168.22;1833176;77;21051;-43
2023/01/30 06:03:57;;;;;;;5.55;1.55;;;;;;;11.02;73.95;101165.08;1831232;77;21041;-42
2023/01/30 06:06:26;;;;;;;2.70;1.27;;;;;;;11.45;72.61;101166.20;1830983;77;21041;-44
2023/01/30 06:08:58;;;;;;;2.30;1.12;;;;;;;11.88;71.54;101160.69;1831052;77;21089;-47
2023/01/30 06:11:27;;;;;;;3.70;1.17;;;;;;;12.47;70.77;101154.48;1835849;77;21053;-43
2023/01/30 06:13:56;;;;;;;3.12;1.57;;;;;;;13.13;69.90;101149.95;1859339;76;21541;-46
2023/01/30 06:16:24;;;;;;;2.65;1.32;;;;;;;13.65;68.28;101151.26;1861867;77;21049;-45
2023/01/30 06:18:53;;;;;;;1.98;1.30;;;;;;;13.21;68.17;101158.02;1858696;77;21123;-44
2023/01/30 06:21:22;;;;;;;4.47;1.17;;;;;;;13.14;67.42;101157.41;1833235;77;21539;-43
2023/01/30 06:23:50;;;;;;;3.12;0.90;;;;;;;12.58;66.06;101161.95;1851806;77;21041;-44
2023/01/30 06:26:19;;;;;;;3.83;1.60;;;;;;;11.69;66.82;101164.91;1861636;77;21562;-44
2023/01/30 06:28:48;;;;;;;4.65;1.70;;;;;;;11.18;66.33;101170.69;1847732;77;21136;-44
2023/01/30 06:31:17;;;;;;;3.90;1.20;;;;;;;11.27;66.47;101167.73;1831195;77;21084;-45
2023/01/30 06:33:48;;;;;;;3.20;1.10;;;;;;;12.26;65.89;101161.00;1832701;77;21049;-43
2023/01/30 06:36:16;;;;;;;3.55;1.10;;;;;;;13.18;64.77;101156.81;1846112;77;21608;-44
2023/01/30 06:38:45;;;;;;;0.50;0.50;;;;;;;13.95;63.17;101161.36;1840083;77;21061;-46
2023/01/30 06:41:14;;;;;;;2.05;0.62;;;;;;;14.48;60.64;101158.80;1831496;77;21029;-47
2023/01/30 06:43:43;;;;;;;1.07;0.40;;;;;;;14.90;59.61;101151.46;1830883;77;21057;-43
2023/01/30 06:46:12;;;;;;;1.12;0.40;;;;;;;15.07;57.86;101147.98;1848360;77;21132;-44
2023/01/30 06:48:41;;;;;;;0.55;0.40;;;;;;;15.41;56.92;101136.44;1831158;78;21053;-42
2023/01/30 06:51:09;;;;;;;3.02;0.62;;;;;;;16.00;56.77;101143.47;1850546;77;21039;-43
2023/01/30 06:53:38;;;;;;;0.85;0.57;;;;;;;16.49;56.18;101135.88;1849624;77;21140;-44
2023/01/30 06:56:07;;;;;;;0.82;0.50;;;;;;;17.00;55.40;101124.09;1847928;78;21047;-49
2023/01/30 06:58:36;;;;;;;2.85;0.62;;;;;;;17.58;55.80;101136.51;1847835;76;21660;-45
2023/01/30 07:01:05;;;;;;;6.75;1.72;;;;;;;18.31;54.45;101143.45;1847891;78;21044;-48
2023/01/30 07:03:34;;;;;;;0.95;0.53;;;;;;;18.84;52.73;101136.40;1833555;78;21615;-47
2023/01/30 07:06:03;;;;;;;1.65;0.42;;;;;;;18.60;49.75;101135.36;1843187;78;21028;-44
2023/01/30 07:08:31;;;;;;;1.72;0.40;;;;;;;18.57;47.25;101133.73;1839407;78;21147;-47
2023/01/30 07:11:00;;;;;;;3.58;0.70;;;;;;;18.10;48.23;101143.05;1831063;78;21057;-44
2023/01/30 07:13:28;;;;;;;4.08;0.60;;;;;;;17.12;49.19;101145.98;1831174;78;21115;-45
2023/01/30 07:15:57;;;;;;;4.70;0.70;;;;;;;16.93;48.74;101145.75;1831166;78;21053;-44
2023/01/30 07:18:26;;;;;;;1.77;0.60;;;;;;;15.57;49.06;101152.90;1831263;78;21123;-43
2023/01/30 07:20:54;;;;;;;1.17;0.70;;;;;;;14.13;50.47;101159.62;1831179;78;21052;-44
2023/01/30 07:23:23;;;;;;;0.53;0.40;;;;;;;12.95;52.33;101153.38;1831076;78;21508;-42
2023/01/30 07:25:51;;;;;;;2.05;0.60;;;;;;;12.69;53.65;101157.12;1831175;78;21167;-46
2023/01/30 07:28:20;;;;;;;3.35;0.70;;;;;;;11.98;54.13;101156.79;1831410;77;21061;-47
2023/01/30 07:30:51;;;;;;;0.47;0.35;;;;;;;12.24;54.90;101144.83;1866059;77;21090;-45
2023/01/30 07:33:19;;;;;;;2.17;0.70;;;;;;;14.01;53.00;101135.91;1866058;77;21094;-43
2023/01/30 07:35:48;;;;;;;4.87;0.80;;;;;;;14.84;52.19;101147.33;1866021;77;21098;-46
2023/01/30 07:38:16;;;;;;;0.90;0.45;;;;;;;14.78;51.11;101157.40;1865282;77;21015;-44
2023/01/30 07:40:45;;;;;;;0.42;0.37;;;;;;;14.60;51.05;101153.86;1847776;78;21122;-44
2023/01/30 07:43:14;;;;;;;0.70;0.47;;;;;;;14.20;51.77;101159.28;1847725;78;21122;-47
2023/01/30 07:45:48;;;;;;;0.68;0.50;;;;;;;14.23;52.17;101159.11;1847753;78;21489;-47
2023/01/30 07:48:19;;;;;;;0.88;0.45;;;;;;;13.69;53.00;101148.38;1847856;78;21028;-47
2023/01/30 07:50:47;;;;;;;0.68;0.50;;;;;;;13.04;53.83;101149.46;1847823;78;21122;-47
2023/01/30 07:53:17;;;;;;;1.37;0.60;;;;;;;12.94;53.60;101145.04;1847722;78;21067;-49
2023/01/30 07:55:46;;;;;;;0.80;0.60;;;;;;;13.14;53.59;101145.52;1847854;78;21035;-50
2023/01/30 07:58:15;;;;;;;0.75;0.50;;;;;;;13.64;52.87;101149.05;1849546;76;21080;-48
2023/01/30 08:00:45;;;;;;;0.85;0.40;;;;;;;13.16;53.86;101148.09;1860847;77;21556;-46
2023/01/30 08:03:15;;;;;;;0.93;0.60;;;;;;;12.81;54.42;101143.84;1862223;77;21530;-49
2023/01/30 08:05:47;;;;;;;1.57;0.65;;;;;;;13.67;53.41;101146.75;1858722;76;21035;-50
2023/01/30 08:08:16;;;;;;;2.10;0.60;;;;;;;14.47;52.30;101142.97;1853694;77;21463;-48
2023/01/30 08:10:46;;;;;;;1.20;0.40;;;;;;;13.94;52.65;101144.59;1853326;77;21050;-49
2023/01/30 08:13:15;;;;;;;3.20;0.50;;;;;;;14.14;52.42;101145.45;1853369;77;21039;-46
2023/01/30 08:15:44;;;;;;;0.93;0.40;;;;;;;13.86;52.56;101137.02;1853232;76;21541;-48
2023/01/30 08:18:12;;;;;;;0.53;0.45;;;;;;;13.64;53.04;101148.20;1853343;77;21043;-49
2023/01/30 08:20:41;;;;;;;2.80;0.50;;;;;;;14.00;52.56;101148.30;1855085;76;21035;-43
2023/01/30 08:23:10;;;;;;;0.50;0.30;;;;;;;13.56;53.16;101139.77;1860859;77;21043;-43
2023/01/30 08:25:39;;;;;;;1.20;0.72;;;;;;;12.83;53.10;101149.92;1859593;77;21055;-49
2023/01/30 08:28:07;;;;;;;0.82;0.50;;;;;;;12.73;53.07;101134.92;1861111;76;21044;-46
2023/01/30 08:30:36;;;;;;;1.92;0.50;;;;;;;14.64;51.19;101137.75;1861704;77;21092;-42
2023/01/30 08:33:05;;;;;;;1.22;0.40;;;;;;;16.48;48.56;101135.95;1861720;77;21040;-44
2023/01/30 08:35:33;;;;;;;0.88;0.40;;;;;;;17.59;44.70;101122.23;1861742;77;21091;-46
2023/01/30 08:38:03;;;;;;;0.60;0.35;;;;;;;18.45;43.77;101127.90;1861669;77;21553;-46
2023/01/30 08:40:32;;;;;;;1.22;0.20;;;;;;;18.84;41.81;101118.22;1817554;77;21037;-45
2023/01/30 08:43:01;;;;;;;0.30;0.30;;;;;;;19.05;40.38;101118.55;1816269;79;21028;-46
2023/01/30 08:45:30;;;;;;;0.93;0.42;;;;;;;18.84;40.13;101115.06;1816267;79;21185;-45
2023/01/30 08:48:03;;;;;;;1.62;0.53;;;;;;;19.19;39.90;101111.78;1816258;79;21644;-44
2023/01/30 08:50:33;;;;;;;1.10;0.68;;;;;;;19.35;39.22;101112.04;1812352;79;21202;-46
2023/01/30 08:53:07;;;;;;;2.22;0.37;;;;;;;19.37;39.42;101112.32;1810015;79;21116;-45
2023/01/30 08:55:36;;;;;;;1.95;0.50;;;;;;;19.84;37.44;101097.89;1815672;79;21045;-49
2023/01/30 08:58:05;;;;;;;0.62;0.35;;;;;;;17.59;39.55;101102.26;1815717;78;21066;-47
2023/01/30 09:00:33;;;;;;;2.42;0.35;;;;;;;15.99;41.73;101095.29;1815673;79;21053;-42
2023/01/30 09:03:02;;;;;;;0.55;0.42;;;;;;;14.72;43.66;101091.42;1815898;78;21094;-42
2023/01/30 09:05:31;;;;;;;0.93;0.40;;;;;;;13.97;45.35;101099.45;1815558;79;21069;-47
2023/01/30 09:07:59;;;;;;;0.80;0.50;;;;;;;13.35;46.24;101098.77;1825550;77;21134;-49
2023/01/30 09:10:29;;;;;;;1.50;0.40;;;;;;;12.62;47.69;101095.73;1852101;77;21008;-46
2023/01/30 09:12:57;;;;;;;1.47;0.60;;;;;;;12.12;49.08;101114.51;1815111;79;21037;-48
2023/01/30 09:15:26;;;;;;;5.70;1.27;;;;;;;11.66;50.61;101116.25;1817811;79;21024;-46
2023/01/30 09:17:55;;;;;;;1.92;0.82;;;;;;;11.54;51.46;101101.25;1824299;79;21072;-45
2023/01/30 09:20:24;;;;;;;0.85;0.50;;;;;;;11.34;52.43;101113.00;1834050;78;21046;-48
2023/01/30 09:22:53;;;;;;;2.85;0.70;;;;;;;11.11;53.20;101098.88;1856884;77;21117;-49
2023/01/30 09:25:21;;;;;;;0.55;0.50;;;;;;;10.89;53.73;101101.87;1836881;77;21270;-45
2023/01/30 09:27:50;;;;;;;0.55;0.50;;;;;;;10.66;54.34;101094.30;1836453;77;21165;-46
2023/01/30 09:30:20;;;;;;;1.42;0.53;;;;;;;10.55;54.79;101091.14;1860711;74;21090;-47
2023/01/30 09:32:48;;;;;;;3.50;0.55;;;;;;;10.49;55.26;101089.57;1888405;75;21056;-50
2023/01/30 09:35:17;;;;;;;0.72;0.53;;;;;;;10.63;55.30;101080.77;1891381;75;21053;-45
2023/01/30 09:37:54;;;;;;;1.05;0.40;;;;;;;13.47;51.36;101077.06;1892023;75;21547;-47
2023/01/30 09:40:25;;;;;;;2.95;0.45;;;;;;;15.00;48.55;101071.84;1882472;76;21134;-48
2023/01/30 09:43:05;;;;;;;1.15;0.45;;;;;;;16.52;45.10;101063.91;1823686;77;21128;-49
2023/01/30 09:45:52;;;;;;;1.70;0.40;;;;;;;17.23;44.62;101058.37;1849193;73;21090;-47
2023/01/30 09:48:39;;;;;;;1.25;0.55;;;;;;;16.60;44.98;101061.67;1839409;74;21114;-47
2023/01/30 09:51:28;;;;;;;1.05;0.50;;;;;;;14.79;47.05;101053.06;1846988;76;21123;-49
2023/01/30 09:54:15;;;;;;;1.22;0.75;;;;;;;13.86;48.89;101060.25;1849600;75;21060;-47
2023/01/30 09:56:44;;;;;;;2.25;0.95;;;;;;;13.21;50.43;101054.89;1849136;77;21109;-48
2023/01/30 09:59:18;;;;;;;0.88;0.40;;;;;;;12.57;50.87;101047.52;1849132;77;21011;-46
2023/01/30 10:01:49;;;;;;;2.52;0.50;;;;;;;12.19;51.65;101039.43;1847088;73;21106;-47
2023/01/30 10:04:39;;;;;;;1.32;0.50;;;;;;;11.81;51.60;101040.46;1849099;77;21059;-48
2023/01/30 10:07:14;;;;;;;1.00;0.50;;;;;;;12.17;51.38;101035.97;1848913;77;21538;-47
2023/01/30 10:09:49;;;;;;;2.12;0.40;;;;;;;13.08;49.81;101035.61;1849133;77;21117;-48
2023/01/30 10:12:35;;;;;;;1.50;0.40;;;;;;;12.71;49.77;101020.52;1847103;75;21020;-49
2023/01/30 10:15:23;;;;;;;0.85;0.40;;;;;;;11.97;50.82;101035.02;1848366;76;21040;-45
2023/01/30 10:18:14;;;;;;;0.82;0.40;;;;;;;11.34;51.46;101035.23;1847629;78;21036;-45
2023/01/30 10:21:01;;;;;;;0.20;0.20;;;;;;;10.91;52.63;101022.31;1847832;76;21514;-45
2023/01/30 10:23:35;;;;;;;0.53;0.30;;;;;;;10.65;53.16;101024.09;1848860;76;21122;-46
2023/01/30 10:26:09;;;;;;;0.25;0.25;;;;;;;10.48;53.42;101027.78;1849942;76;21059;-49
2023/01/30 10:29:04;;;;;;;2.10;0.30;;;;;;;10.43;53.81;101027.92;1849026;75;21047;-47
2023/01/30 10:31:39;;;;;;;;;;;;;;;10.34;54.24;101040.07;1870927;74;21130;-45
2023/01/30 10:34:16;;;;;;;4.70;0.47;;;;;;;10.19;55.04;101039.63;1863997;76;20123;-47
2023/01/30 10:36:50;;;;;;;0.30;0.20;;;;;;;9.93;56.48;101047.05;1866804;76;21127;-46
2023/01/30 10:39:28;;;;;;;0.68;0.40;;;;;;;9.53;57.84;101044.31;1891927;74;21545;-46
2023/01/30 10:41:59;;;;;;;0.75;0.60;;;;;;;9.16;59.42;101037.96;1887960;74;21054;-46
2023/01/30 10:44:28;;;;;;;0.88;0.20;;;;;;;8.96;60.57;101035.89;1867174;76;21105;-46
2023/01/30 10:47:26;;;;;;;0.78;0.50;;;;;;;8.85;60.84;101037.48;1887954;76;21011;-47
2023/01/30 10:49:58;;;;;;;1.05;0.30;;;;;;;8.69;61.94;101033.13;1887831;76;21130;-49
2023/01/30 10:52:46;;;;;;;0.40;0.30;;;;;;;9.46;60.66;101030.94;1888163;75;21112;-44
2023/01/30 10:55:36;;;;;;;0.30;0.30;;;;;;;9.24;60.62;101025.02;1855921;77;21488;-49
2023/01/30 10:58:22;;;;;;;1.98;1.47;;;;;;;9.03;61.06;101017.74;1855849;76;21054;-48
2023/01/30 11:00:52;;;;;;;1.20;0.75;;;;;;;8.84;61.81;101020.03;1856038;77;21050;-44
2023/01/30 11:03:24;;;;;;;2.70;0.88;;;;;;;8.82;62.04;101021.84;1862532;75;21076;-45
2023/01/30 11:05:55;;;;;;;0.88;0.80;;;;;;;8.81;62.20;101023.58;1882311;74;21057;-48
2023/01/30 11:08:27;;;;;;;1.65;0.55;;;;;;;8.84;62.57;101022.19;1883638;76;21045;-46
2023/01/30 11:10:57;;;;;;;0.47;0.47;;;;;;;8.91;62.28;101008.88;1883796;76;21092;-44
2023/01/30 11:13:32;;;;;;;1.67;0.25;;;;;;;8.98;62.24;101017.00;1884229;75;21118;-43
2023/01/30 11:16:06;;;;;;;1.45;0.60;;;;;;;8.96;61.94;101004.38;1883600;76;21444;-45
2023/01/30 11:18:46;;;;;;;3.00;0.50;;;;;;;8.92;61.95;101005.37;1883617;76;21127;-44
2023/01/30 11:21:24;;;;;;;0.80;0.50;;;;;;;8.84;61.99;101015.63;1883479;76;21119;-44
2023/01/30 11:23:54;;;;;;;2.37;0.57;;;;;;;8.72;62.26;101001.97;1884365;75;21044;-44
2023/01/30 11:26:32;;;;;;;2.00;0.50;;;;;;;8.71;62.43;101009.00;1883559;76;21573;-43
2023/01/30 11:29:02;;;;;;;0.42;0.37;;;;;;;8.62;62.29;100993.49;1883569;76;21072;-44
2023/01/30 11:31:31;;;;;;;2.47;0.47;;;;;;;8.55;62.67;101010.30;1878431;74;21677;-43
2023/01/30 11:34:05;;;;;;;2.20;0.42;;;;;;;8.44;62.59;101007.49;1861994;77;21089;-45
2023/01/30 11:36:35;;;;;;;0.37;0.37;;;;;;;8.46;62.74;101014.88;1858645;76;21123;-47
2023/01/30 11:39:20;;;;;;;3.77;1.40;;;;;;;8.45;63.02;101021.50;1862049;77;21045;-45
2023/01/30 11:41:58;;;;;;;4.00;1.27;;;;;;;8.34;63.50;101026.98;1861966;77;21540;-47
2023/01/30 11:44:32;;;;;;;3.02;1.57;;;;;;;8.00;65.51;101015.98;1825507;76;21628;-47
2023/01/30 11:47:03;;;;;;;2.25;1.02;;;;;;;7.54;68.42;101034.08;1817469;79;21482;-47
2023/01/30 11:49:37;;;;;;;1.57;0.90;;;;;;;8.54;68.37;101019.06;1817127;77;21051;-46
2023/01/30 11:52:07;;;;;;;1.00;0.47;;;;;;;10.04;66.14;101006.78;1817434;79;21056;-46
2023/01/30 11:54:39;;;;;;;4.08;0.60;;;;;;;11.00;63.69;100995.64;1838953;78;21498;-46